createdAt,value
2018-03-15T00:01:35.186Z,68.11
2018-03-15T00:04:09.214Z,67.88
2018-03-15T00:06:42.517Z,68.10
2018-03-15T00:09:15.766Z,68.38
2018-03-15T00:11:49.809Z,68.36
2018-03-15T00:14:23.059Z,68.64
2018-03-15T01:48:02.203Z,70.21
2018-03-15T01:50:35.494Z,69.92
2018-03-15T01:53:08.746Z,70.19
2018-03-15T01:55:42.008Z,70.33
2018-03-15T01:58:15.252Z,70.51
2018-03-15T03:31:54.862Z,73.31
2018-03-15T03:34:28.116Z,73.27
2018-03-15T03:37:02.245Z,73.47
2018-03-15T03:39:35.494Z,73.45
2018-03-15T03:42:08.765Z,73.41
2018-03-15T03:44:42.018Z,73.12
2018-03-15T04:45:54.982Z,73.49
2018-03-15T04:48:28.245Z,73.55
2018-03-15T04:51:02.274Z,73.55
2018-03-15T04:53:35.544Z,73.85
2018-03-15T04:56:09.556Z,73.82
2018-03-15T04:58:43.593Z,73.84
2018-03-15T05:30:52.894Z,73.46
2018-03-15T05:33:26.913Z,73.53
2018-03-15T05:36:00.189Z,73.65
2018-03-15T05:38:34.207Z,73.56
2018-03-15T05:41:08.245Z,73.33
2018-03-15T05:43:41.492Z,73.23
2018-03-15T05:46:14.765Z,73.49
2018-03-15T05:48:48.010Z,73.33
2018-03-15T05:51:22.095Z,73.65
2018-03-15T05:53:55.284Z,73.53
2018-03-15T05:56:28.581Z,73.33
2018-03-15T05:59:01.821Z,73.33
2018-03-15T06:01:35.093Z,73.59
2018-03-15T06:04:09.794Z,73.54
2018-03-15T06:06:43.071Z,73.30
2018-03-15T06:09:16.314Z,73.30
2018-03-15T06:11:49.590Z,73.14
2018-03-15T06:14:23.626Z,73.25
2018-03-15T06:16:56.896Z,72.98
2018-03-15T06:19:30.914Z,72.93
2018-03-15T06:22:04.949Z,72.64
2018-03-15T06:24:38.198Z,72.75
2018-03-15T06:27:11.458Z,72.62
2018-03-15T06:29:44.708Z,72.48
2018-03-15T06:32:18.773Z,72.19
2018-03-15T06:34:52.026Z,72.42
2018-03-15T06:37:25.291Z,72.15
2018-03-15T06:39:59.338Z,71.99
2018-03-15T06:42:32.605Z,72.03
2018-03-15T06:45:06.646Z,72.23
2018-03-15T06:47:39.908Z,72.13
2018-03-15T06:50:13.947Z,71.97
2018-03-15T06:52:47.197Z,72.02
2018-03-15T06:55:20.482Z,71.86
2018-03-15T06:57:53.728Z,71.56
2018-03-15T07:00:27.012Z,71.13
2018-03-15T07:03:00.249Z,70.85
2018-03-15T07:05:33.524Z,71.28
2018-03-15T07:08:06.806Z,71.64
2018-03-15T07:10:40.049Z,70.92
2018-03-15T07:13:13.319Z,71.21
2018-03-15T07:15:46.573Z,70.91
2018-03-15T07:18:20.625Z,71.53
2018-03-15T07:20:53.910Z,70.85
2018-03-15T07:23:27.151Z,70.46
2018-03-15T07:26:00.417Z,70.61
2018-03-15T07:28:33.666Z,70.32
2018-03-15T08:03:29.117Z,74.17
2018-03-15T08:06:02.370Z,72.80
2018-03-15T08:08:35.629Z,72.64
2018-03-15T08:11:08.905Z,71.63
2018-03-15T08:13:42.166Z,70.89
2018-03-15T09:01:51.037Z,68.08
2018-03-15T09:04:24.278Z,68.34
2018-03-15T09:06:57.566Z,67.87
2018-03-15T09:09:30.815Z,67.92
2018-03-15T09:12:04.094Z,67.87
2018-03-15T09:14:37.337Z,67.59
2018-03-15T10:02:42.398Z,65.17
2018-03-15T10:05:15.673Z,64.85
2018-03-15T10:07:48.950Z,64.61
2018-03-15T10:10:22.196Z,64.87
2018-03-15T10:12:55.462Z,64.34
2018-03-15T11:01:06.865Z,64.12
2018-03-15T11:03:46.381Z,64.22
2018-03-15T11:06:25.251Z,64.23
2018-03-15T11:08:59.354Z,64.13
2018-03-15T11:11:33.395Z,64.27
2018-03-15T11:14:06.646Z,63.76
2018-03-15T12:02:11.997Z,62.20
2018-03-15T12:04:45.254Z,62.36
2018-03-15T12:07:18.554Z,62.18
2018-03-15T12:09:51.803Z,61.46
2018-03-15T12:12:25.837Z,60.82
2018-03-15T12:14:59.121Z,59.33
2018-03-15T13:03:03.236Z,56.92
2018-03-15T13:05:36.528Z,57.28
2018-03-15T13:08:09.778Z,57.39
2018-03-15T13:10:43.062Z,56.80
2018-03-15T13:13:16.330Z,57.07
2018-03-15T14:01:24.602Z,58.79
2018-03-15T14:03:57.861Z,59.03
2018-03-15T14:06:31.152Z,59.28
2018-03-15T14:09:05.193Z,58.86
2018-03-15T14:11:38.466Z,58.50
2018-03-15T14:14:12.497Z,58.97
2018-03-15T15:02:20.220Z,56.97
2018-03-15T15:04:53.465Z,57.04
2018-03-15T15:07:27.513Z,57.28
2018-03-15T15:10:00.816Z,57.35
2018-03-15T15:12:34.068Z,57.37
2018-03-15T15:15:08.118Z,57.45
2018-03-15T15:47:00.424Z,59.58
2018-03-15T15:49:33.699Z,59.68
2018-03-15T15:52:06.952Z,59.90
2018-03-15T15:54:40.228Z,59.95
2018-03-15T15:57:13.477Z,59.92
2018-03-15T15:59:46.757Z,60.05
2018-03-15T16:31:37.806Z,60.52
2018-03-15T16:34:11.050Z,60.53
2018-03-15T16:36:44.341Z,60.66
2018-03-15T16:39:18.361Z,60.66
2018-03-15T16:41:51.626Z,60.74
2018-03-15T16:44:24.875Z,60.75
2018-03-15T16:46:58.153Z,60.85
2018-03-15T16:49:31.428Z,61.03
2018-03-15T16:52:05.437Z,60.95
2018-03-15T16:54:39.477Z,61.10
2018-03-15T16:57:12.758Z,61.25
2018-03-15T16:59:46.770Z,61.45
2018-03-15T17:02:20.813Z,61.49
2018-03-15T17:04:54.057Z,61.49
2018-03-15T17:07:28.098Z,61.60
2018-03-15T17:10:02.132Z,61.60
2018-03-15T17:12:35.392Z,61.82
2018-03-15T17:15:09.429Z,61.77
2018-03-15T17:17:42.682Z,61.79
2018-03-15T17:20:15.956Z,61.81
2018-03-15T17:22:49.210Z,61.95
2018-03-15T17:25:22.487Z,62.04
2018-03-15T17:27:56.520Z,61.94
2018-03-15T17:30:29.767Z,61.97
2018-03-15T17:33:03.037Z,62.03
2018-03-15T17:35:36.311Z,62.05
2018-03-15T17:38:09.605Z,62.07
2018-03-15T17:40:42.851Z,62.15
2018-03-15T17:43:16.903Z,62.18
2018-03-15T17:45:50.153Z,62.19
2018-03-15T17:48:24.192Z,62.33
2018-03-15T17:50:57.457Z,62.35
2018-03-15T17:53:31.499Z,62.44
2018-03-15T17:56:04.776Z,62.38
2018-03-15T17:58:38.814Z,62.36
2018-03-15T18:01:12.303Z,62.48
2018-03-15T18:03:45.677Z,62.53
2018-03-15T18:06:19.042Z,62.57
2018-03-15T18:08:52.472Z,62.73
2018-03-15T18:11:25.784Z,62.97
2018-03-15T18:13:59.045Z,63.25
2018-03-15T18:16:32.786Z,63.49
2018-03-15T18:19:06.263Z,63.61
2018-03-15T18:21:40.447Z,63.75
2018-03-15T18:24:14.056Z,63.88
2018-03-15T18:26:47.500Z,64.01
2018-03-15T18:29:21.694Z,64.05
2018-03-15T18:31:55.210Z,64.06
2018-03-15T18:34:28.966Z,63.82
2018-03-15T18:37:03.140Z,63.73
2018-03-15T18:39:36.803Z,63.66
2018-03-15T18:42:10.246Z,63.64
2018-03-15T18:44:43.717Z,63.67
2018-03-15T18:47:17.084Z,63.74
2018-03-15T18:49:50.356Z,63.81
2018-03-15T18:52:23.601Z,63.79
2018-03-15T18:54:56.878Z,64.01
2018-03-15T18:57:30.206Z,63.96
2018-03-15T19:00:03.461Z,64.08
2018-03-15T19:02:36.737Z,64.15
2018-03-15T19:05:10.006Z,64.24
2018-03-15T19:07:43.284Z,64.29
2018-03-15T19:10:16.520Z,64.38
2018-03-15T19:12:49.818Z,64.40
2018-03-15T19:15:23.317Z,64.40
2018-03-15T19:17:56.599Z,64.46
2018-03-15T19:20:29.868Z,64.60
2018-03-15T19:23:03.149Z,64.67
2018-03-15T19:25:36.388Z,64.70
2018-03-15T19:28:09.692Z,64.82
2018-03-15T19:30:42.935Z,64.75
2018-03-15T19:33:16.329Z,64.70
2018-03-15T19:35:49.696Z,64.72
2018-03-15T19:38:23.894Z,64.76
2018-03-15T19:40:57.338Z,64.74
2018-03-15T19:43:30.645Z,64.77
2018-03-15T19:46:04.080Z,64.77
2018-03-15T19:48:37.442Z,64.74
2018-03-15T19:51:10.837Z,64.75
2018-03-15T19:53:44.082Z,64.69
2018-03-15T19:56:17.353Z,64.73
2018-03-15T19:58:50.615Z,64.62
2018-03-15T20:01:23.897Z,64.63
2018-03-15T20:03:57.934Z,64.64
2018-03-15T20:06:31.224Z,64.61
2018-03-15T20:09:04.480Z,64.61
2018-03-15T20:11:37.757Z,64.65
2018-03-15T20:14:11.054Z,64.59
2018-03-15T20:16:44.291Z,64.57
2018-03-15T20:19:19.475Z,64.67
2018-03-15T20:21:52.966Z,64.71
2018-03-15T20:24:31.738Z,64.66
2018-03-15T20:27:05.022Z,64.68
2018-03-15T20:29:38.357Z,64.71
2018-03-15T20:32:11.598Z,64.71
2018-03-15T20:34:45.667Z,64.79
2018-03-15T20:37:18.929Z,64.80
2018-03-15T20:39:57.854Z,64.73
2018-03-15T20:42:31.126Z,64.70
2018-03-15T20:45:05.145Z,64.78
2018-03-15T20:47:44.644Z,64.76
2018-03-15T20:50:17.922Z,64.74
2018-03-15T20:52:51.194Z,64.72
2018-03-15T20:55:24.450Z,64.70
2018-03-15T20:57:58.498Z,64.62
2018-03-15T21:00:31.750Z,64.65
2018-03-15T21:03:05.017Z,64.63
2018-03-15T21:05:38.278Z,64.69
2018-03-15T21:08:11.545Z,64.73
2018-03-15T21:10:45.616Z,64.81
2018-03-15T21:13:18.844Z,64.92
2018-03-15T21:15:52.855Z,64.87
2018-03-15T21:18:26.893Z,65.01
2018-03-15T21:21:00.165Z,65.19
2018-03-15T21:23:34.213Z,65.18
2018-03-15T21:26:07.507Z,65.27
2018-03-15T21:28:40.774Z,65.32
2018-03-15T21:31:14.063Z,65.26
2018-03-15T21:33:48.072Z,65.30
2018-03-15T21:36:22.112Z,65.21
2018-03-15T21:38:55.379Z,65.17
2018-03-15T21:41:29.450Z,65.11
2018-03-15T21:44:02.693Z,65.05
2018-03-15T21:46:35.969Z,65.01
2018-03-15T21:49:09.226Z,65.05
2018-03-15T21:51:42.544Z,64.98
2018-03-15T21:54:15.752Z,64.92
2018-03-15T21:56:49.793Z,64.76
2018-03-15T21:59:23.077Z,64.57
2018-03-15T22:01:57.098Z,64.68
2018-03-15T22:04:30.856Z,64.64
2018-03-15T22:07:04.159Z,64.61
2018-03-15T22:09:37.481Z,64.47
2018-03-15T22:12:11.553Z,64.27
2018-03-15T22:14:44.880Z,63.96
2018-03-15T22:17:18.191Z,63.79
2018-03-15T22:19:52.273Z,63.70
2018-03-15T22:22:25.589Z,63.28
2018-03-15T22:24:58.894Z,62.65
2018-03-15T22:27:32.941Z,62.42
2018-03-15T22:30:06.256Z,62.33
2018-03-15T22:32:39.552Z,62.23
2018-03-15T22:35:12.862Z,62.23
2018-03-15T22:37:46.184Z,62.16
2018-03-15T22:40:19.484Z,62.03
2018-03-15T22:42:53.536Z,62.14
2018-03-15T22:45:26.847Z,62.14
2018-03-15T22:48:00.131Z,62.13
2018-03-15T22:50:34.244Z,62.09
2018-03-15T22:53:07.546Z,62.05
2018-03-15T22:55:40.846Z,62.11
2018-03-15T22:58:14.152Z,62.50
2018-03-15T23:00:47.432Z,62.67
2018-03-15T23:03:20.758Z,63.09
2018-03-15T23:05:54.807Z,63.51
2018-03-15T23:08:28.132Z,64.18
2018-03-15T23:11:01.438Z,64.94
2018-03-15T23:13:34.750Z,65.22
2018-03-15T23:16:08.831Z,65.43
2018-03-15T23:18:42.118Z,65.75
2018-03-15T23:21:15.440Z,66.02
2018-03-15T23:23:48.726Z,67.99
2018-03-15T23:26:22.046Z,69.62
2018-03-15T23:28:56.095Z,70.17
2018-03-15T23:31:29.406Z,71.35
2018-03-15T23:34:02.689Z,74.24
2018-03-15T23:36:35.999Z,74.58
2018-03-15T23:39:09.287Z,75.14
2018-03-15T23:41:42.607Z,74.76
2018-03-15T23:44:15.914Z,74.73
2018-03-15T23:46:49.222Z,74.66
2018-03-15T23:49:23.272Z,76.40
2018-03-15T23:51:56.580Z,76.51
2018-03-15T23:54:29.871Z,75.98
2018-03-15T23:57:03.178Z,75.76
2018-03-15T23:59:36.464Z,75.84
